N9522S KOPF-KMIA
Flight info
| Callsign | N9522S |
|---|---|
| Flight time | 0h -17m |
| Altitude | 2000 |
| Route | KOPF KMIA |
| Aircraft | C172/L-V/N |
Departure
| Time | 2026-04-23 03:43 |
|---|---|
| Airport | Miami-Opa Locka Executive Airport (KOPF) |
Arrival
| Time | 2026-04-23 03:26 |
|---|---|
| Airport | Miami International Airport (KMIA) |
| Time | Latitude | Longitude | Altitude | Speed | Heading |
|---|---|---|---|---|---|
| 2026-04-23 03:26 | 25.91161 | -80.26291 | 10 ft | 0 kts | 175° |
| 2026-04-23 03:38 | 25.91157 | -80.26288 | 10 ft | 4 kts | 118° |
| 2026-04-23 03:38 | 25.91186 | -80.26325 | 9 ft | 16 kts | 273° |
| 2026-04-23 03:38 | 25.91187 | -80.26490 | 8 ft | 28 kts | 267° |
| 2026-04-23 03:38 | 25.91175 | -80.26734 | 14 ft | 34 kts | 267° |
| 2026-04-23 03:39 | 25.91162 | -80.27018 | 13 ft | 39 kts | 268° |
| 2026-04-23 03:39 | 25.91147 | -80.27334 | 14 ft | 43 kts | 266° |
| 2026-04-23 03:39 | 25.91130 | -80.27682 | 11 ft | 47 kts | 267° |
| 2026-04-23 03:39 | 25.91111 | -80.28029 | 8 ft | 39 kts | 275° |
| 2026-04-23 03:40 | 25.91155 | -80.28274 | 10 ft | 34 kts | 267° |
| 2026-04-23 03:40 | 25.91143 | -80.28554 | 11 ft | 38 kts | 265° |
| 2026-04-23 03:40 | 25.91129 | -80.28790 | 15 ft | 1 kts | 270° |
| 2026-04-23 03:40 | 25.91129 | -80.28791 | 15 ft | 1 kts | 271° |
| 2026-04-23 03:41 | 25.91145 | -80.28829 | 15 ft | 12 kts | 315° |
| 2026-04-23 03:41 | 25.91163 | -80.28839 | 15 ft | 0 kts | 357° |
| 2026-04-23 03:42 | 25.91204 | -80.28843 | 15 ft | 23 kts | 348° |
| 2026-04-23 03:42 | 25.91280 | -80.28623 | 13 ft | 57 kts | 88° |
| 2026-04-23 03:42 | 25.91312 | -80.28032 | 36 ft | 91 kts | 85° |
| 2026-04-23 03:43 | 25.91330 | -80.27330 | 259 ft | 92 kts | 88° |
| 2026-04-23 03:43 | 25.91261 | -80.26625 | 488 ft | 90 kts | 108° |
| 2026-04-23 03:43 | 25.91174 | -80.25957 | 734 ft | 86 kts | 100° |
| 2026-04-23 03:43 | 25.91113 | -80.25353 | 1029 ft | 78 kts | 86° |
| 2026-04-23 03:44 | 25.91205 | -80.24781 | 1254 ft | 77 kts | 75° |
| 2026-04-23 03:44 | 25.91360 | -80.24198 | 1452 ft | 80 kts | 71° |
| 2026-04-23 03:44 | 25.91591 | -80.23648 | 1677 ft | 79 kts | 55° |
| 2026-04-23 03:44 | 25.91806 | -80.23073 | 1831 ft | 85 kts | 86° |
| 2026-04-23 03:45 | 25.91631 | -80.22501 | 2004 ft | 77 kts | 123° |
| 2026-04-23 03:45 | 25.91592 | -80.21946 | 1857 ft | 74 kts | 86° |
| 2026-04-23 03:45 | 25.91622 | -80.21325 | 1866 ft | 84 kts | 86° |
| 2026-04-23 03:45 | 25.91639 | -80.20649 | 1914 ft | 90 kts | 87° |
| 2026-04-23 03:46 | 25.91670 | -80.19928 | 1948 ft | 95 kts | 88° |
| 2026-04-23 03:46 | 25.91693 | -80.19179 | 1935 ft | 104 kts | 88° |
| 2026-04-23 03:46 | 25.91686 | -80.18413 | 1984 ft | 104 kts | 84° |
| 2026-04-23 03:46 | 25.91849 | -80.17599 | 1894 ft | 110 kts | 79° |
| 2026-04-23 03:47 | 25.91959 | -80.16760 | 1865 ft | 110 kts | 89° |
| 2026-04-23 03:47 | 25.91712 | -80.16004 | 1920 ft | 102 kts | 130° |
| 2026-04-23 03:47 | 25.91108 | -80.15611 | 1882 ft | 106 kts | 168° |
| 2026-04-23 03:47 | 25.90391 | -80.15704 | 1867 ft | 102 kts | 212° |
| 2026-04-23 03:48 | 25.89870 | -80.16220 | 1891 ft | 101 kts | 224° |
| 2026-04-23 03:48 | 25.89370 | -80.16776 | 1902 ft | 101 kts | 226° |
| 2026-04-23 03:48 | 25.88877 | -80.17340 | 1885 ft | 104 kts | 227° |
| 2026-04-23 03:48 | 25.88363 | -80.17919 | 1891 ft | 104 kts | 225° |
| 2026-04-23 03:49 | 25.87852 | -80.18479 | 1893 ft | 104 kts | 224° |
| 2026-04-23 03:49 | 25.87326 | -80.19047 | 1870 ft | 106 kts | 225° |
| 2026-04-23 03:49 | 25.86805 | -80.19619 | 1884 ft | 105 kts | 225° |
| 2026-04-23 03:49 | 25.86265 | -80.20181 | 1861 ft | 107 kts | 224° |
| 2026-04-23 03:50 | 25.85728 | -80.20746 | 1866 ft | 106 kts | 224° |
| 2026-04-23 03:50 | 25.85190 | -80.21309 | 1855 ft | 107 kts | 223° |
| 2026-04-23 03:50 | 25.84642 | -80.21859 | 1857 ft | 106 kts | 225° |
| 2026-04-23 03:50 | 25.84111 | -80.22427 | 1844 ft | 106 kts | 225° |
| 2026-04-23 03:51 | 25.83578 | -80.22990 | 1857 ft | 105 kts | 224° |
| 2026-04-23 03:51 | 25.83051 | -80.23535 | 1868 ft | 104 kts | 223° |
| 2026-04-23 03:51 | 25.82512 | -80.24087 | 1867 ft | 104 kts | 223° |
| 2026-04-23 03:51 | 25.81978 | -80.24632 | 1863 ft | 105 kts | 224° |
| 2026-04-23 03:52 | 25.81451 | -80.25179 | 1890 ft | 102 kts | 223° |
| 2026-04-23 03:52 | 25.80919 | -80.25720 | 1885 ft | 105 kts | 223° |
| 2026-04-23 03:52 | 25.80362 | -80.26249 | 1855 ft | 108 kts | 220° |
| 2026-04-23 03:52 | 25.79805 | -80.26778 | 1897 ft | 103 kts | 222° |
| 2026-04-23 03:53 | 25.79284 | -80.27319 | 1902 ft | 103 kts | 225° |
| 2026-04-23 03:53 | 25.78944 | -80.27991 | 1897 ft | 102 kts | 263° |
| 2026-04-23 03:53 | 25.79079 | -80.28758 | 1906 ft | 102 kts | 290° |
| 2026-04-23 03:53 | 25.79346 | -80.29477 | 1899 ft | 103 kts | 291° |
| 2026-04-23 03:54 | 25.79629 | -80.30228 | 1896 ft | 104 kts | 293° |
| 2026-04-23 03:54 | 25.79932 | -80.30977 | 1866 ft | 107 kts | 294° |
| 2026-04-23 03:54 | 25.80236 | -80.31707 | 1882 ft | 105 kts | 294° |
| 2026-04-23 03:54 | 25.80532 | -80.32451 | 1877 ft | 106 kts | 292° |
| 2026-04-23 03:55 | 25.80827 | -80.33194 | 1880 ft | 105 kts | 294° |
| 2026-04-23 03:55 | 25.81127 | -80.33935 | 1878 ft | 105 kts | 294° |
| 2026-04-23 03:55 | 25.81430 | -80.34675 | 1877 ft | 105 kts | 293° |
| 2026-04-23 03:55 | 25.81732 | -80.35418 | 1875 ft | 106 kts | 295° |
| 2026-04-23 03:56 | 25.82057 | -80.36145 | 1880 ft | 105 kts | 294° |
| 2026-04-23 03:56 | 25.82344 | -80.36893 | 1875 ft | 105 kts | 292° |
| 2026-04-23 03:56 | 25.82637 | -80.37639 | 1878 ft | 105 kts | 294° |
| 2026-04-23 03:56 | 25.82939 | -80.38380 | 1876 ft | 105 kts | 292° |
| 2026-04-23 03:57 | 25.83228 | -80.39127 | 1876 ft | 105 kts | 293° |
| 2026-04-23 03:57 | 25.83523 | -80.39871 | 1876 ft | 105 kts | 292° |
| 2026-04-23 03:57 | 25.83764 | -80.40632 | 1874 ft | 104 kts | 276° |
| 2026-04-23 03:57 | 25.83716 | -80.41437 | 1851 ft | 105 kts | 263° |
| 2026-04-23 03:58 | 25.83619 | -80.42239 | 1847 ft | 105 kts | 262° |
| 2026-04-23 03:58 | 25.83515 | -80.43042 | 1849 ft | 105 kts | 262° |
| 2026-04-23 03:58 | 25.83420 | -80.43842 | 1839 ft | 105 kts | 263° |
| 2026-04-23 03:58 | 25.83355 | -80.44633 | 1855 ft | 103 kts | 264° |
| 2026-04-23 03:59 | 25.83279 | -80.45429 | 1859 ft | 103 kts | 264° |
| 2026-04-23 03:59 | 25.83189 | -80.46202 | 1898 ft | 101 kts | 262° |
| 2026-04-23 03:59 | 25.83080 | -80.46983 | 1883 ft | 104 kts | 260° |
| 2026-04-23 03:59 | 25.82959 | -80.47770 | 1886 ft | 104 kts | 261° |
| 2026-04-23 04:00 | 25.82859 | -80.48573 | 1884 ft | 104 kts | 262° |
| 2026-04-23 04:00 | 25.82739 | -80.49377 | 1858 ft | 106 kts | 259° |
| 2026-04-23 04:00 | 25.82630 | -80.50186 | 1875 ft | 104 kts | 263° |
| 2026-04-23 04:00 | 25.82528 | -80.50986 | 1860 ft | 105 kts | 261° |
| 2026-04-23 04:01 | 25.82429 | -80.51787 | 1852 ft | 105 kts | 262° |
| 2026-04-23 04:01 | 25.82320 | -80.52574 | 1857 ft | 104 kts | 262° |
| 2026-04-23 04:01 | 25.82235 | -80.53376 | 1844 ft | 105 kts | 263° |
| 2026-04-23 04:01 | 25.82121 | -80.54173 | 1852 ft | 104 kts | 261° |
| 2026-04-23 04:02 | 25.81972 | -80.54958 | 1839 ft | 104 kts | 242° |
| 2026-04-23 04:02 | 25.81390 | -80.55410 | 1860 ft | 104 kts | 193° |
| 2026-04-23 04:02 | 25.80682 | -80.55294 | 1837 ft | 108 kts | 154° |
| 2026-04-23 04:02 | 25.80199 | -80.54686 | 1859 ft | 107 kts | 109° |
| 2026-04-23 04:03 | 25.80197 | -80.53860 | 1817 ft | 109 kts | 84° |
| 2026-04-23 04:03 | 25.79978 | -80.53092 | 1861 ft | 104 kts | 120° |
| 2026-04-23 04:03 | 25.79633 | -80.52388 | 1889 ft | 104 kts | 115° |
| 2026-04-23 04:03 | 25.79377 | -80.51602 | 1838 ft | 109 kts | 102° |
| 2026-04-23 04:04 | 25.79274 | -80.50790 | 1870 ft | 107 kts | 91° |
| 2026-04-23 04:04 | 25.79272 | -80.49953 | 1832 ft | 110 kts | 90° |
| 2026-04-23 04:04 | 25.79298 | -80.49116 | 1855 ft | 107 kts | 87° |
| 2026-04-23 04:04 | 25.79336 | -80.48279 | 1840 ft | 109 kts | 87° |
| 2026-04-23 04:05 | 25.79376 | -80.47457 | 1844 ft | 108 kts | 88° |
| 2026-04-23 04:05 | 25.79400 | -80.46619 | 1830 ft | 106 kts | 87° |
| 2026-04-23 04:05 | 25.79421 | -80.45809 | 1709 ft | 104 kts | 90° |
| 2026-04-23 04:05 | 25.79409 | -80.45023 | 1606 ft | 101 kts | 92° |
| 2026-04-23 04:06 | 25.79429 | -80.44243 | 1462 ft | 102 kts | 85° |
| 2026-04-23 04:06 | 25.79496 | -80.43469 | 1339 ft | 101 kts | 82° |
| 2026-04-23 04:06 | 25.79587 | -80.42702 | 1348 ft | 99 kts | 83° |
| 2026-04-23 04:06 | 25.79635 | -80.41938 | 1332 ft | 101 kts | 90° |
| 2026-04-23 04:07 | 25.79635 | -80.41171 | 1364 ft | 98 kts | 89° |
| 2026-04-23 04:07 | 25.79656 | -80.40402 | 1347 ft | 102 kts | 86° |
| 2026-04-23 04:07 | 25.79699 | -80.39625 | 1365 ft | 100 kts | 86° |
| 2026-04-23 04:07 | 25.79738 | -80.38840 | 1358 ft | 101 kts | 86° |
| 2026-04-23 04:08 | 25.79731 | -80.38065 | 1366 ft | 101 kts | 90° |
| 2026-04-23 04:08 | 25.79746 | -80.37304 | 1354 ft | 95 kts | 86° |
| 2026-04-23 04:08 | 25.79802 | -80.36574 | 1231 ft | 96 kts | 86° |
| 2026-04-23 04:08 | 25.79834 | -80.35824 | 1083 ft | 99 kts | 88° |
| 2026-04-23 04:09 | 25.79848 | -80.35049 | 915 ft | 99 kts | 90° |
| 2026-04-23 04:09 | 25.79864 | -80.34293 | 786 ft | 97 kts | 83° |
| 2026-04-23 04:09 | 25.79949 | -80.33554 | 639 ft | 97 kts | 89° |
| 2026-04-23 04:09 | 25.79965 | -80.32806 | 503 ft | 96 kts | 86° |
| 2026-04-23 04:10 | 25.79992 | -80.32065 | 378 ft | 96 kts | 88° |
| 2026-04-23 04:10 | 25.80017 | -80.31327 | 253 ft | 96 kts | 87° |
| 2026-04-23 04:10 | 25.80044 | -80.30590 | 134 ft | 95 kts | 88° |
| 2026-04-23 04:10 | 25.80076 | -80.29905 | 58 ft | 76 kts | 86° |
| 2026-04-23 04:11 | 25.80100 | -80.29443 | 11 ft | 27 kts | 87° |
| 2026-04-23 04:11 | 25.80107 | -80.29278 | 15 ft | 20 kts | 88° |
| 2026-04-23 04:11 | 25.80113 | -80.29123 | 16 ft | 21 kts | 86° |
| 2026-04-23 04:11 | 25.80122 | -80.28915 | 17 ft | 32 kts | 84° |
| 2026-04-23 04:12 | 25.80220 | -80.28700 | 13 ft | 19 kts | 57° |
| 2026-04-23 04:12 | 25.80228 | -80.28686 | 13 ft | 0 kts | 67° |